sensor_id;sensor_type;location;lat;lon;timestamp;pressure;altitude;pressure_sealevel;temperature;humidity
69247;BME280;56358;56.328;43.992;2022-08-21T00:01:53;102070.75;;;15.31;57.78
69247;BME280;56358;56.328;43.992;2022-08-21T00:03:55;102084.16;;;15.32;57.91
69247;BME280;56358;56.328;43.992;2022-08-21T00:05:56;102081.91;;;15.26;57.99
69247;BME280;56358;56.328;43.992;2022-08-21T00:07:57;102071.53;;;15.20;57.80
69247;BME280;56358;56.328;43.992;2022-08-21T00:09:58;102077.06;;;15.18;58.10
69247;BME280;56358;56.328;43.992;2022-08-21T00:11:59;102074.47;;;15.17;58.19
69247;BME280;56358;56.328;43.992;2022-08-21T00:13:59;102080.53;;;15.20;58.08
69247;BME280;56358;56.328;43.992;2022-08-21T00:16:01;102088.63;;;15.20;58.54
69247;BME280;56358;56.328;43.992;2022-08-21T00:18:02;102082.69;;;15.15;58.65
69247;BME280;56358;56.328;43.992;2022-08-21T00:20:06;102077.59;;;15.11;58.44
69247;BME280;56358;56.328;43.992;2022-08-21T00:22:08;102063.25;;;14.97;58.42
69247;BME280;56358;56.328;43.992;2022-08-21T00:24:09;102097.16;;;15.01;58.71
69247;BME280;56358;56.328;43.992;2022-08-21T00:26:13;102091.13;;;14.98;58.94
69247;BME280;56358;56.328;43.992;2022-08-21T00:28:14;102087.13;;;14.90;58.95
69247;BME280;56358;56.328;43.992;2022-08-21T00:30:17;102101.41;;;14.93;58.74
69247;BME280;56358;56.328;43.992;2022-08-21T00:32:22;102090.91;;;14.88;58.92
69247;BME280;56358;56.328;43.992;2022-08-21T00:34:24;102081.00;;;14.88;59.20
69247;BME280;56358;56.328;43.992;2022-08-21T00:36:24;102066.41;;;14.78;59.23
69247;BME280;56358;56.328;43.992;2022-08-21T00:38:25;102079.34;;;14.73;59.21
69247;BME280;56358;56.328;43.992;2022-08-21T00:40:32;102070.13;;;14.63;59.55
69247;BME280;56358;56.328;43.992;2022-08-21T00:42:33;102084.63;;;14.74;59.27
69247;BME280;56358;56.328;43.992;2022-08-21T00:44:34;102095.13;;;14.79;59.63
69247;BME280;56358;56.328;43.992;2022-08-21T00:46:35;102091.25;;;14.83;59.18
69247;BME280;56358;56.328;43.992;2022-08-21T00:48:36;102089.75;;;14.79;59.85
69247;BME280;56358;56.328;43.992;2022-08-21T00:50:42;102099.66;;;14.79;59.80
69247;BME280;56358;56.328;43.992;2022-08-21T00:52:45;102093.06;;;14.83;58.78
69247;BME280;56358;56.328;43.992;2022-08-21T00:54:47;102094.81;;;14.97;58.46
69247;BME280;56358;56.328;43.992;2022-08-21T00:56:53;102095.22;;;15.03;58.59
69247;BME280;56358;56.328;43.992;2022-08-21T00:58:56;102082.25;;;14.96;58.84
69247;BME280;56358;56.328;43.992;2022-08-21T01:00:59;102112.84;;;15.09;59.08
69247;BME280;56358;56.328;43.992;2022-08-21T01:03:06;102083.56;;;14.90;59.38
69247;BME280;56358;56.328;43.992;2022-08-21T01:05:08;102089.09;;;14.88;58.94
69247;BME280;56358;56.328;43.992;2022-08-21T01:07:09;102086.69;;;14.84;59.06
69247;BME280;56358;56.328;43.992;2022-08-21T01:09:11;102098.28;;;14.86;59.04
69247;BME280;56358;56.328;43.992;2022-08-21T01:11:13;102094.59;;;14.74;59.45
69247;BME280;56358;56.328;43.992;2022-08-21T01:13:17;102104.63;;;14.72;59.32
69247;BME280;56358;56.328;43.992;2022-08-21T01:15:19;102091.22;;;14.57;59.79
69247;BME280;56358;56.328;43.992;2022-08-21T01:17:20;102086.78;;;14.56;59.88
69247;BME280;56358;56.328;43.992;2022-08-21T01:19:22;102025.19;;;14.10;60.01
69247;BME280;56358;56.328;43.992;2022-08-21T01:21:25;102112.78;;;14.57;59.95
69247;BME280;56358;56.328;43.992;2022-08-21T01:23:26;102108.25;;;14.58;59.86
69247;BME280;56358;56.328;43.992;2022-08-21T01:25:27;102056.69;;;14.22;59.76
69247;BME280;56358;56.328;43.992;2022-08-21T01:27:28;102113.53;;;14.59;59.65
69247;BME280;56358;56.328;43.992;2022-08-21T01:29:39;102122.53;;;14.60;59.78
69247;BME280;56358;56.328;43.992;2022-08-21T01:31:42;102115.28;;;14.61;59.48
69247;BME280;56358;56.328;43.992;2022-08-21T01:33:43;102066.13;;;14.30;59.75
69247;BME280;56358;56.328;43.992;2022-08-21T01:35:43;102103.72;;;14.46;59.83
69247;BME280;56358;56.328;43.992;2022-08-21T01:37:45;102111.72;;;14.60;60.01
69247;BME280;56358;56.328;43.992;2022-08-21T01:39:47;102116.13;;;14.48;59.70
69247;BME280;56358;56.328;43.992;2022-08-21T01:41:48;102119.28;;;14.55;59.68
69247;BME280;56358;56.328;43.992;2022-08-21T01:43:49;102109.00;;;14.47;60.21
69247;BME280;56358;56.328;43.992;2022-08-21T01:45:49;102112.53;;;14.48;59.88
69247;BME280;56358;56.328;43.992;2022-08-21T01:47:50;102111.38;;;14.52;60.16
69247;BME280;56358;56.328;43.992;2022-08-21T01:49:51;101937.31;;;13.54;59.54
69247;BME280;56358;56.328;43.992;2022-08-21T01:51:52;102104.28;;;14.64;59.53
69247;BME280;56358;56.328;43.992;2022-08-21T01:53:53;102094.41;;;14.63;59.80
69247;BME280;56358;56.328;43.992;2022-08-21T01:55:53;102105.91;;;14.66;59.53
69247;BME280;56358;56.328;43.992;2022-08-21T01:57:54;102108.72;;;14.65;59.64
69247;BME280;56358;56.328;43.992;2022-08-21T01:59:55;102111.88;;;14.71;59.69
69247;BME280;56358;56.328;43.992;2022-08-21T02:01:56;102101.06;;;14.71;59.52
69247;BME280;56358;56.328;43.992;2022-08-21T02:03:57;102113.03;;;14.67;60.22
69247;BME280;56358;56.328;43.992;2022-08-21T02:05:58;102045.38;;;14.30;60.01
69247;BME280;56358;56.328;43.992;2022-08-21T02:08:00;102121.69;;;14.72;60.04
69247;BME280;56358;56.328;43.992;2022-08-21T02:10:05;102115.63;;;14.69;59.92
69247;BME280;56358;56.328;43.992;2022-08-21T02:12:06;102127.41;;;14.68;60.14
69247;BME280;56358;56.328;43.992;2022-08-21T02:14:11;102031.34;;;14.12;59.65
69247;BME280;56358;56.328;43.992;2022-08-21T02:16:14;102113.53;;;14.59;59.89
69247;BME280;56358;56.328;43.992;2022-08-21T02:18:15;102120.47;;;14.64;59.84
69247;BME280;56358;56.328;43.992;2022-08-21T02:20:21;102118.34;;;14.69;59.97
69247;BME280;56358;56.328;43.992;2022-08-21T02:22:22;102112.09;;;14.68;59.75
69247;BME280;56358;56.328;43.992;2022-08-21T02:24:23;102110.78;;;14.74;59.68
69247;BME280;56358;56.328;43.992;2022-08-21T02:26:24;102103.22;;;14.66;59.62
69247;BME280;56358;56.328;43.992;2022-08-21T02:28:25;102106.34;;;14.73;59.61
69247;BME280;56358;56.328;43.992;2022-08-21T02:30:30;102115.44;;;14.85;58.53
69247;BME280;56358;56.328;43.992;2022-08-21T02:32:31;102111.75;;;14.99;58.20
69247;BME280;56358;56.328;43.992;2022-08-21T02:34:32;102103.66;;;15.12;57.26
69247;BME280;56358;56.328;43.992;2022-08-21T02:36:32;102106.53;;;15.21;56.68
69247;BME280;56358;56.328;43.992;2022-08-21T02:38:35;102097.56;;;15.34;55.97
69247;BME280;56358;56.328;43.992;2022-08-21T02:40:41;102105.09;;;15.54;55.44
69247;BME280;56358;56.328;43.992;2022-08-21T02:42:42;102101.81;;;15.62;55.16
69247;BME280;56358;56.328;43.992;2022-08-21T02:44:44;102086.97;;;15.68;54.62
69247;BME280;56358;56.328;43.992;2022-08-21T02:46:44;102080.38;;;15.72;54.45
69247;BME280;56358;56.328;43.992;2022-08-21T02:48:45;102118.38;;;15.95;54.25
69247;BME280;56358;56.328;43.992;2022-08-21T02:50:59;102116.84;;;16.03;53.97
69247;BME280;56358;56.328;43.992;2022-08-21T02:53:01;102105.25;;;16.01;53.67
69247;BME280;56358;56.328;43.992;2022-08-21T02:55:02;102097.78;;;16.05;53.52
69247;BME280;56358;56.328;43.992;2022-08-21T02:57:03;102109.84;;;16.12;53.15
69247;BME280;56358;56.328;43.992;2022-08-21T02:59:04;102115.34;;;16.23;52.91
69247;BME280;56358;56.328;43.992;2022-08-21T03:01:06;102110.19;;;16.32;53.28
69247;BME280;56358;56.328;43.992;2022-08-21T03:03:10;102116.00;;;16.38;52.63
69247;BME280;56358;56.328;43.992;2022-08-21T03:05:12;102117.50;;;16.42;52.84
69247;BME280;56358;56.328;43.992;2022-08-21T03:07:15;102107.75;;;16.40;52.48
69247;BME280;56358;56.328;43.992;2022-08-21T03:09:15;102117.88;;;16.49;52.18
69247;BME280;56358;56.328;43.992;2022-08-21T03:11:17;102114.59;;;16.57;51.96
69247;BME280;56358;56.328;43.992;2022-08-21T03:13:19;102095.97;;;16.52;51.98
69247;BME280;56358;56.328;43.992;2022-08-21T03:15:22;102038.56;;;16.24;51.62
69247;BME280;56358;56.328;43.992;2022-08-21T03:17:26;102108.09;;;16.71;52.11
69247;BME280;56358;56.328;43.992;2022-08-21T03:19:27;102089.84;;;16.62;51.72
69247;BME280;56358;56.328;43.992;2022-08-21T03:21:28;102118.19;;;16.80;51.48
69247;BME280;56358;56.328;43.992;2022-08-21T03:23:29;102108.97;;;16.83;51.43
69247;BME280;56358;56.328;43.992;2022-08-21T03:25:31;102105.03;;;16.87;50.67
69247;BME280;56358;56.328;43.992;2022-08-21T03:27:32;102099.75;;;16.85;50.93
69247;BME280;56358;56.328;43.992;2022-08-21T03:29:34;102095.72;;;16.91;50.38
69247;BME280;56358;56.328;43.992;2022-08-21T03:31:35;102108.88;;;16.96;50.18
69247;BME280;56358;56.328;43.992;2022-08-21T03:33:35;102039.75;;;16.67;50.14
69247;BME280;56358;56.328;43.992;2022-08-21T03:35:36;102094.72;;;17.03;50.16
69247;BME280;56358;56.328;43.992;2022-08-21T03:37:37;102039.91;;;16.77;50.35
69247;BME280;56358;56.328;43.992;2022-08-21T03:39:38;102100.88;;;17.17;50.08
69247;BME280;56358;56.328;43.992;2022-08-21T03:41:39;102075.88;;;17.02;49.76
69247;BME280;56358;56.328;43.992;2022-08-21T03:43:39;102085.00;;;17.23;49.84
69247;BME280;56358;56.328;43.992;2022-08-21T03:45:40;102102.13;;;17.35;49.96
69247;BME280;56358;56.328;43.992;2022-08-21T03:47:58;102125.28;;;17.51;49.85
69247;BME280;56358;56.328;43.992;2022-08-21T03:49:59;102122.44;;;17.52;49.18
69247;BME280;56358;56.328;43.992;2022-08-21T03:52:00;102111.56;;;17.64;49.10
69247;BME280;56358;56.328;43.992;2022-08-21T03:54:02;102110.31;;;17.68;49.17
69247;BME280;56358;56.328;43.992;2022-08-21T03:56:04;102117.69;;;17.77;49.83
69247;BME280;56358;56.328;43.992;2022-08-21T03:58:05;102118.31;;;17.81;48.82
69247;BME280;56358;56.328;43.992;2022-08-21T04:00:07;102107.09;;;17.74;48.77
69247;BME280;56358;56.328;43.992;2022-08-21T04:02:10;102120.13;;;17.91;48.86
69247;BME280;56358;56.328;43.992;2022-08-21T04:04:12;102119.66;;;17.98;48.77
69247;BME280;56358;56.328;43.992;2022-08-21T04:06:13;102042.44;;;17.58;48.30
69247;BME280;56358;56.328;43.992;2022-08-21T04:08:15;102097.81;;;17.99;48.38
69247;BME280;56358;56.328;43.992;2022-08-21T04:10:17;102118.84;;;18.18;48.37
69247;BME280;56358;56.328;43.992;2022-08-21T04:12:18;102111.69;;;18.17;48.66
69247;BME280;56358;56.328;43.992;2022-08-21T04:14:20;102105.88;;;18.22;48.82
69247;BME280;56358;56.328;43.992;2022-08-21T04:16:21;102037.78;;;17.92;48.67
69247;BME280;56358;56.328;43.992;2022-08-21T04:18:21;102092.38;;;18.32;48.93
69247;BME280;56358;56.328;43.992;2022-08-21T04:20:23;102110.50;;;18.52;48.56
69247;BME280;56358;56.328;43.992;2022-08-21T04:22:24;102109.00;;;18.59;48.29
69247;BME280;56358;56.328;43.992;2022-08-21T04:24:25;102120.41;;;18.74;48.25
69247;BME280;56358;56.328;43.992;2022-08-21T04:26:26;102111.41;;;18.74;48.43
69247;BME280;56358;56.328;43.992;2022-08-21T04:28:27;102120.31;;;18.86;47.57
69247;BME280;56358;56.328;43.992;2022-08-21T04:30:28;102080.16;;;18.68;47.44
69247;BME280;56358;56.328;43.992;2022-08-21T04:32:28;102126.69;;;18.96;47.32
69247;BME280;56358;56.328;43.992;2022-08-21T04:34:30;102045.94;;;18.56;47.40
69247;BME280;56358;56.328;43.992;2022-08-21T04:36:32;102108.94;;;18.92;47.45
69247;BME280;56358;56.328;43.992;2022-08-21T04:38:33;102121.44;;;19.04;47.13
69247;BME280;56358;56.328;43.992;2022-08-21T04:40:34;102115.69;;;18.98;47.36
69247;BME280;56358;56.328;43.992;2022-08-21T04:42:45;102120.44;;;19.05;47.36
69247;BME280;56358;56.328;43.992;2022-08-21T04:44:47;102082.41;;;18.84;47.17
69247;BME280;56358;56.328;43.992;2022-08-21T04:46:49;102127.81;;;19.15;47.40
69247;BME280;56358;56.328;43.992;2022-08-21T04:48:49;102118.91;;;19.13;46.76
69247;BME280;56358;56.328;43.992;2022-08-21T04:51:21;102133.28;;;19.24;46.13
69247;BME280;56358;56.328;43.992;2022-08-21T04:53:26;102136.31;;;19.31;46.03
69247;BME280;56358;56.328;43.992;2022-08-21T04:55:27;102127.59;;;19.37;45.24
69247;BME280;56358;56.328;43.992;2022-08-21T04:57:28;102022.75;;;18.73;44.91
69247;BME280;56358;56.328;43.992;2022-08-21T04:59:35;102128.63;;;19.46;44.86
69247;BME280;56358;56.328;43.992;2022-08-21T05:01:37;102117.50;;;19.49;44.43
69247;BME280;56358;56.328;43.992;2022-08-21T05:03:39;102120.97;;;19.61;44.25
69247;BME280;56358;56.328;43.992;2022-08-21T05:05:40;102128.16;;;19.72;43.67
69247;BME280;56358;56.328;43.992;2022-08-21T05:07:42;102126.31;;;19.82;43.55
69247;BME280;56358;56.328;43.992;2022-08-21T05:09:44;102028.72;;;19.38;44.08
69247;BME280;56358;56.328;43.992;2022-08-21T05:11:45;102129.53;;;20.07;43.28
69247;BME280;56358;56.328;43.992;2022-08-21T05:13:46;102127.38;;;20.20;42.86
69247;BME280;56358;56.328;43.992;2022-08-21T05:15:47;102125.22;;;20.34;42.24
69247;BME280;56358;56.328;43.992;2022-08-21T05:17:48;102114.63;;;20.40;42.11
69247;BME280;56358;56.328;43.992;2022-08-21T05:19:48;102125.50;;;20.50;41.40
69247;BME280;56358;56.328;43.992;2022-08-21T05:21:49;102130.06;;;20.59;41.03
69247;BME280;56358;56.328;43.992;2022-08-21T05:23:50;102125.06;;;20.74;40.86
69247;BME280;56358;56.328;43.992;2022-08-21T05:25:52;102126.91;;;20.84;40.47
69247;BME280;56358;56.328;43.992;2022-08-21T05:27:53;102114.28;;;20.83;40.17
69247;BME280;56358;56.328;43.992;2022-08-21T05:29:54;102107.38;;;20.88;40.30
69247;BME280;56358;56.328;43.992;2022-08-21T05:31:54;102116.66;;;21.05;39.50
69247;BME280;56358;56.328;43.992;2022-08-21T05:33:56;102106.16;;;21.10;39.70
69247;BME280;56358;56.328;43.992;2022-08-21T05:35:57;102121.56;;;21.30;40.09
69247;BME280;56358;56.328;43.992;2022-08-21T05:37:58;102118.50;;;21.42;40.60
69247;BME280;56358;56.328;43.992;2022-08-21T05:40:00;102115.72;;;21.52;40.23
69247;BME280;56358;56.328;43.992;2022-08-21T05:42:03;102106.97;;;21.58;41.71
69247;BME280;56358;56.328;43.992;2022-08-21T05:44:04;102112.25;;;21.60;41.45
69247;BME280;56358;56.328;43.992;2022-08-21T05:46:06;102114.31;;;21.76;40.64
69247;BME280;56358;56.328;43.992;2022-08-21T05:48:14;102111.66;;;21.84;40.52
69247;BME280;56358;56.328;43.992;2022-08-21T05:50:15;102113.41;;;21.85;41.01
69247;BME280;56358;56.328;43.992;2022-08-21T05:52:20;102122.91;;;21.99;41.09
69247;BME280;56358;56.328;43.992;2022-08-21T05:54:21;102117.44;;;21.99;40.40
69247;BME280;56358;56.328;43.992;2022-08-21T05:56:22;102101.31;;;22.06;40.31
69247;BME280;56358;56.328;43.992;2022-08-21T05:58:22;102049.28;;;21.71;40.20
69247;BME280;56358;56.328;43.992;2022-08-21T06:00:23;102102.47;;;22.03;41.61
69247;BME280;56358;56.328;43.992;2022-08-21T06:02:24;102092.66;;;22.10;41.45
69247;BME280;56358;56.328;43.992;2022-08-21T06:04:25;102086.97;;;22.04;41.46
69247;BME280;56358;56.328;43.992;2022-08-21T06:06:25;102092.41;;;22.22;41.54
69247;BME280;56358;56.328;43.992;2022-08-21T06:08:27;102102.88;;;22.26;41.45
69247;BME280;56358;56.328;43.992;2022-08-21T06:10:28;102083.38;;;22.21;41.35
69247;BME280;56358;56.328;43.992;2022-08-21T06:12:29;102094.06;;;22.15;41.35
69247;BME280;56358;56.328;43.992;2022-08-21T06:14:29;102065.13;;;22.04;41.51
69247;BME280;56358;56.328;43.992;2022-08-21T06:16:30;102094.50;;;22.28;41.53
69247;BME280;56358;56.328;43.992;2022-08-21T06:18:31;102110.16;;;22.36;40.36
69247;BME280;56358;56.328;43.992;2022-08-21T06:20:32;102091.56;;;22.39;40.85
69247;BME280;56358;56.328;43.992;2022-08-21T06:22:32;102096.06;;;22.49;39.14
69247;BME280;56358;56.328;43.992;2022-08-21T06:24:33;102089.97;;;22.55;38.71
69247;BME280;56358;56.328;43.992;2022-08-21T06:26:34;102082.25;;;22.50;38.28
69247;BME280;56358;56.328;43.992;2022-08-21T06:28:35;102099.13;;;22.46;38.24
69247;BME280;56358;56.328;43.992;2022-08-21T06:30:38;102083.91;;;22.43;38.38
69247;BME280;56358;56.328;43.992;2022-08-21T06:32:39;102087.66;;;22.42;38.15
69247;BME280;56358;56.328;43.992;2022-08-21T06:34:41;102081.72;;;22.47;38.49
69247;BME280;56358;56.328;43.992;2022-08-21T06:36:42;102099.91;;;22.56;38.55
69247;BME280;56358;56.328;43.992;2022-08-21T06:38:42;102089.19;;;22.63;38.77
69247;BME280;56358;56.328;43.992;2022-08-21T06:40:43;102091.25;;;22.69;38.44
69247;BME280;56358;56.328;43.992;2022-08-21T06:42:44;102092.84;;;22.80;38.50
69247;BME280;56358;56.328;43.992;2022-08-21T06:44:45;102093.56;;;22.82;38.50
69247;BME280;56358;56.328;43.992;2022-08-21T06:46:46;102091.03;;;22.88;38.46
69247;BME280;56358;56.328;43.992;2022-08-21T06:48:47;102090.88;;;22.90;38.31
69247;BME280;56358;56.328;43.992;2022-08-21T06:50:48;102100.03;;;23.07;38.39
69247;BME280;56358;56.328;43.992;2022-08-21T06:52:48;102085.81;;;23.03;38.11
69247;BME280;56358;56.328;43.992;2022-08-21T06:54:49;102099.41;;;23.13;38.16
69247;BME280;56358;56.328;43.992;2022-08-21T06:56:50;102104.91;;;23.21;38.32
69247;BME280;56358;56.328;43.992;2022-08-21T06:58:51;102067.31;;;22.97;38.15
69247;BME280;56358;56.328;43.992;2022-08-21T07:00:52;102095.19;;;23.19;38.11
69247;BME280;56358;56.328;43.992;2022-08-21T07:02:53;102094.34;;;23.26;38.12
69247;BME280;56358;56.328;43.992;2022-08-21T07:04:54;102042.25;;;23.10;38.06
69247;BME280;56358;56.328;43.992;2022-08-21T07:06:55;102066.28;;;23.24;37.95
69247;BME280;56358;56.328;43.992;2022-08-21T07:08:55;102039.09;;;23.23;37.58
69247;BME280;56358;56.328;43.992;2022-08-21T07:11:00;102032.94;;;23.21;37.77
69247;BME280;56358;56.328;43.992;2022-08-21T07:13:02;102087.09;;;23.60;37.31
69247;BME280;56358;56.328;43.992;2022-08-21T07:15:03;102093.75;;;23.57;37.07
69247;BME280;56358;56.328;43.992;2022-08-21T07:17:04;102047.19;;;23.41;36.63
69247;BME280;56358;56.328;43.992;2022-08-21T07:19:05;102069.81;;;23.59;36.62
69247;BME280;56358;56.328;43.992;2022-08-21T07:21:07;102081.16;;;23.73;36.47
69247;BME280;56358;56.328;43.992;2022-08-21T07:23:18;102025.31;;;23.57;36.28
69247;BME280;56358;56.328;43.992;2022-08-21T07:25:21;102070.06;;;23.91;35.83
69247;BME280;56358;56.328;43.992;2022-08-21T07:27:22;102039.56;;;23.77;35.35
69247;BME280;56358;56.328;43.992;2022-08-21T07:29:22;102056.56;;;23.89;35.54
69247;BME280;56358;56.328;43.992;2022-08-21T07:31:24;102067.88;;;24.03;35.67
69247;BME280;56358;56.328;43.992;2022-08-21T07:33:28;102068.91;;;24.02;35.84
69247;BME280;56358;56.328;43.992;2022-08-21T07:35:29;102057.44;;;24.15;35.95
69247;BME280;56358;56.328;43.992;2022-08-21T07:37:31;102064.78;;;24.31;35.65
69247;BME280;56358;56.328;43.992;2022-08-21T07:39:32;102062.56;;;24.34;36.22
69247;BME280;56358;56.328;43.992;2022-08-21T07:41:33;102046.78;;;24.44;35.71
69247;BME280;56358;56.328;43.992;2022-08-21T07:43:36;102068.56;;;24.63;36.02
69247;BME280;56358;56.328;43.992;2022-08-21T07:45:37;102068.53;;;24.71;36.98
69247;BME280;56358;56.328;43.992;2022-08-21T07:47:38;102002.94;;;24.36;36.11
69247;BME280;56358;56.328;43.992;2022-08-21T07:49:39;102067.13;;;24.83;36.70
69247;BME280;56358;56.328;43.992;2022-08-21T07:51:40;102013.16;;;24.59;34.36
69247;BME280;56358;56.328;43.992;2022-08-21T07:53:41;102065.22;;;24.92;33.91
69247;BME280;56358;56.328;43.992;2022-08-21T07:55:42;102051.88;;;24.81;33.70
69247;BME280;56358;56.328;43.992;2022-08-21T07:57:43;102049.13;;;24.81;33.88
69247;BME280;56358;56.328;43.992;2022-08-21T07:59:44;102051.06;;;24.72;33.69
69247;BME280;56358;56.328;43.992;2022-08-21T08:01:45;102067.47;;;24.88;33.44
69247;BME280;56358;56.328;43.992;2022-08-21T08:03:46;102051.47;;;25.00;33.66
69247;BME280;56358;56.328;43.992;2022-08-21T08:05:47;102062.75;;;25.14;33.37
69247;BME280;56358;56.328;43.992;2022-08-21T08:07:48;102033.94;;;25.09;33.28
69247;BME280;56358;56.328;43.992;2022-08-21T08:09:49;101978.47;;;24.91;33.11
69247;BME280;56358;56.328;43.992;2022-08-21T08:11:49;102004.84;;;25.00;32.80
69247;BME280;56358;56.328;43.992;2022-08-21T08:13:51;102044.38;;;25.22;32.82
69247;BME280;56358;56.328;43.992;2022-08-21T08:15:53;102051.88;;;25.29;32.68
69247;BME280;56358;56.328;43.992;2022-08-21T08:17:54;102036.75;;;25.33;32.70
69247;BME280;56358;56.328;43.992;2022-08-21T08:19:55;102048.75;;;25.32;33.18
69247;BME280;56358;56.328;43.992;2022-08-21T08:21:56;102035.69;;;25.42;32.60
69247;BME280;56358;56.328;43.992;2022-08-21T08:23:57;102022.66;;;25.44;32.35
69247;BME280;56358;56.328;43.992;2022-08-21T08:25:58;102018.63;;;25.55;32.72
69247;BME280;56358;56.328;43.992;2022-08-21T08:27:59;102017.44;;;25.57;32.54
69247;BME280;56358;56.328;43.992;2022-08-21T08:30:03;102021.06;;;25.73;32.49
69247;BME280;56358;56.328;43.992;2022-08-21T08:32:05;101980.78;;;25.65;31.75
69247;BME280;56358;56.328;43.992;2022-08-21T08:34:07;102019.38;;;25.95;31.88
69247;BME280;56358;56.328;43.992;2022-08-21T08:36:18;102006.09;;;25.99;32.02
69247;BME280;56358;56.328;43.992;2022-08-21T08:38:20;102015.16;;;26.07;31.53
69247;BME280;56358;56.328;43.992;2022-08-21T08:40:37;102014.25;;;26.15;31.12
69247;BME280;56358;56.328;43.992;2022-08-21T08:42:40;102011.13;;;26.18;30.82
69247;BME280;56358;56.328;43.992;2022-08-21T08:44:43;102004.78;;;26.18;30.49
69247;BME280;56358;56.328;43.992;2022-08-21T08:46:47;102003.06;;;26.17;30.47
69247;BME280;56358;56.328;43.992;2022-08-21T08:48:58;102000.81;;;26.35;30.44
69247;BME280;56358;56.328;43.992;2022-08-21T08:51:08;102004.50;;;26.42;29.98
69247;BME280;56358;56.328;43.992;2022-08-21T08:53:21;101994.66;;;26.48;30.13
69247;BME280;56358;56.328;43.992;2022-08-21T08:55:40;101993.63;;;26.49;29.72
69247;BME280;56358;56.328;43.992;2022-08-21T08:57:45;102005.28;;;26.66;30.26
69247;BME280;56358;56.328;43.992;2022-08-21T08:59:53;101998.56;;;26.69;29.75
69247;BME280;56358;56.328;43.992;2022-08-21T09:01:55;101905.25;;;26.22;29.58
69247;BME280;56358;56.328;43.992;2022-08-21T09:03:56;101993.56;;;26.87;29.26
69247;BME280;56358;56.328;43.992;2022-08-21T09:06:19;101995.81;;;26.99;28.51
69247;BME280;56358;56.328;43.992;2022-08-21T09:11:12;101998.41;;;27.22;29.03
69247;BME280;56358;56.328;43.992;2022-08-21T09:16:09;101924.84;;;26.94;28.22
69247;BME280;56358;56.328;43.992;2022-08-21T09:25:20;101970.50;;;28.68;25.88
69247;BME280;56358;56.328;43.992;2022-08-21T09:27:22;101981.25;;;29.05;25.95
69247;BME280;56358;56.328;43.992;2022-08-21T09:29:25;101967.59;;;29.38;25.47
69247;BME280;56358;56.328;43.992;2022-08-21T09:31:33;101984.84;;;29.67;25.00
69247;BME280;56358;56.328;43.992;2022-08-21T09:33:34;101972.97;;;30.00;25.20
69247;BME280;56358;56.328;43.992;2022-08-21T09:35:35;101969.97;;;30.15;24.36
69247;BME280;56358;56.328;43.992;2022-08-21T09:37:53;101961.47;;;30.30;23.94
69247;BME280;56358;56.328;43.992;2022-08-21T09:39:55;101954.38;;;30.68;23.99
69247;BME280;56358;56.328;43.992;2022-08-21T09:42:03;101968.03;;;31.15;23.29
69247;BME280;56358;56.328;43.992;2022-08-21T09:44:06;101960.56;;;31.47;23.13
69247;BME280;56358;56.328;43.992;2022-08-21T09:46:12;101962.06;;;31.50;22.66
69247;BME280;56358;56.328;43.992;2022-08-21T09:50:24;101913.84;;;31.25;22.55
69247;BME280;56358;56.328;43.992;2022-08-21T09:52:25;101953.69;;;31.56;22.05
69247;BME280;56358;56.328;43.992;2022-08-21T09:54:32;101955.56;;;31.63;21.52
69247;BME280;56358;56.328;43.992;2022-08-21T09:56:50;101951.75;;;31.89;21.61
69247;BME280;56358;56.328;43.992;2022-08-21T09:59:31;101919.97;;;32.10;21.50
69247;BME280;56358;56.328;43.992;2022-08-21T10:01:42;101929.03;;;32.42;21.82
69247;BME280;56358;56.328;43.992;2022-08-21T10:03:44;101942.78;;;32.74;21.48
69247;BME280;56358;56.328;43.992;2022-08-21T10:06:00;101942.00;;;32.67;21.48
69247;BME280;56358;56.328;43.992;2022-08-21T10:08:02;101930.22;;;32.72;21.96
69247;BME280;56358;56.328;43.992;2022-08-21T10:10:19;101926.69;;;32.95;21.96
69247;BME280;56358;56.328;43.992;2022-08-21T10:12:23;101923.41;;;32.68;21.44
69247;BME280;56358;56.328;43.992;2022-08-21T10:16:58;101923.56;;;33.03;21.23
69247;BME280;56358;56.328;43.992;2022-08-21T10:20:03;101925.19;;;32.81;21.20
69247;BME280;56358;56.328;43.992;2022-08-21T10:21:45;101927.50;;;33.14;21.38
69247;BME280;56358;56.328;43.992;2022-08-21T10:31:18;101915.06;;;33.71;20.40
69247;BME280;56358;56.328;43.992;2022-08-21T10:42:36;101922.13;;;33.85;20.34
69247;BME280;56358;56.328;43.992;2022-08-21T10:47:19;101910.97;;;34.21;19.77
69247;BME280;56358;56.328;43.992;2022-08-21T10:49:34;101905.97;;;34.47;19.72
69247;BME280;56358;56.328;43.992;2022-08-21T10:51:54;101907.69;;;34.36;19.61
69247;BME280;56358;56.328;43.992;2022-08-21T10:54:09;101861.50;;;34.35;19.05
69247;BME280;56358;56.328;43.992;2022-08-21T10:56:19;101898.59;;;34.52;19.58
69247;BME280;56358;56.328;43.992;2022-08-21T10:58:42;101906.13;;;34.81;19.65
69247;BME280;56358;56.328;43.992;2022-08-21T11:00:51;101901.53;;;34.86;19.28
69247;BME280;56358;56.328;43.992;2022-08-21T11:03:15;101883.63;;;34.30;19.38
69247;BME280;56358;56.328;43.992;2022-08-21T11:05:17;101886.88;;;34.27;19.93
69247;BME280;56358;56.328;43.992;2022-08-21T11:07:26;101894.50;;;34.43;19.80
69247;BME280;56358;56.328;43.992;2022-08-21T11:09:30;101876.31;;;34.81;19.50
69247;BME280;56358;56.328;43.992;2022-08-21T11:11:35;101876.59;;;35.08;18.84
69247;BME280;56358;56.328;43.992;2022-08-21T11:13:42;101893.13;;;34.98;18.92